Alexandra — WDD5677 — position and weather

sailwx.info

Track history (hours):
 
Tides and Currents Weather Stations Pressure Air Temp Water Temp Dewpoint Dewpoint Depression Visibility Wind Speed Wind Dir Waves Ship Positions

Alexandra

Owner: Weeks Marine, Inc., Cranford, NJ. More information available from US FCC via Universal Licensing System and Coast Guard Vessel Documentation Center.

Last reported at 2017-Nov-25 04:00 UTC. Time now 2017-Nov-25 04:20 UTC.
Position N 39°13' W 074°28'.

Length 37 m; draft 5 m.

Type: Tug. MMSI: 367161950.

Date/timePositionNaut miles runAvg speedWind from/ knotsBaromVisibWave heightAir tempDewpointWater temp
2017-Nov-25 04:00N 39°13' W 074°28'711.1
2017-Nov-25 03:25N 39°18' W 074°22'611.1
2017-Nov-25 02:52N 39°22' W 074°17'410.8
2017-Nov-25 02:29N 39°25' W 074°13'510.9
2017-Nov-25 02:00N 39°31' W 074°12'611.1
2017-Nov-25 01:30N 39°36' W 074°09'611.1
2017-Nov-25 01:00N 39°41' W 074°05'611.1
2017-Nov-25 00:30N 39°46' W 074°02'611.2
2017-Nov-24 23:59N 39°51' W 074°02'2811.0
2017-Nov-24 21:24N 40°19' W 073°56'411.0
2017-Nov-24 21:00N 40°24' W 073°55'710.4
2017-Nov-24 20:18N 40°30' W 073°58'411.8
2017-Nov-24 20:00N 40°33' W 074°02'612.3
2017-Nov-24 19:31N 40°39' W 074°03'2 4.3
2017-Nov-24 19:00N 40°41' W 074°05'0 0.0
2017-Nov-24 18:31N 40°41' W 074°05'0 0.0
2017-Nov-24 18:01N 40°41' W 074°05'0 0.1
2017-Nov-24 17:30N 40°41' W 074°05'0 0.0
2017-Nov-24 17:00N 40°41' W 074°05'0 0.0
2017-Nov-24 16:30N 40°41' W 074°05'0 0.0
2017-Nov-24 16:01N 40°41' W 074°05'0 0.0
2017-Nov-24 15:30N 40°41' W 074°05'0 0.0
2017-Nov-24 15:00N 40°41' W 074°05'0 0.0
2017-Nov-24 14:30N 40°41' W 074°05'0 0.0
2017-Nov-24 14:00N 40°41' W 074°05'0 0.0
2017-Nov-24 13:31N 40°41' W 074°05'0 0.0
2017-Nov-24 13:00N 40°41' W 074°05'0 0.0
2017-Nov-24 12:30N 40°41' W 074°05'0 0.0
2017-Nov-24 12:00N 40°41' W 074°05'0 0.0
2017-Nov-24 11:30N 40°41' W 074°05'0 0.0
2017-Nov-24 11:00N 40°41' W 074°05'0 0.0
2017-Nov-24 10:31N 40°41' W 074°05'0 0.0
2017-Nov-24 10:00N 40°41' W 074°05'0 0.0
2017-Nov-24 09:30N 40°41' W 074°05'0 0.0
2017-Nov-24 09:00N 40°41' W 074°05'0 0.0
2017-Nov-24 08:31N 40°41' W 074°05'0 0.0
2017-Nov-24 08:00N 40°41' W 074°05'0 0.5
2017-Nov-24 07:30N 40°41' W 074°04'1 2.2
2017-Nov-24 07:00N 40°40' W 074°03'4 8.2
2017-Nov-24 06:30N 40°36' W 074°02'2 3.9
2017-Nov-24 06:00N 40°34' W 074°02'3 6.7
2017-Nov-24 05:30N 40°31' W 073°59'4 7.1
2017-Nov-24 05:01N 40°29' W 073°55'41 9.0
2017-Nov-24 00:27N 39°49' W 074°02'4 9.2
2017-Nov-23 23:59N 39°44' W 074°03'4 9.2
2017-Nov-23 23:30N 39°40' W 074°06'5 9.3
2017-Nov-23 22:58N 39°36' W 074°09'182 7.7
2017-Nov-22 23:22N 36°57' W 076°01'16 8.0
2017-Nov-22 21:24N 36°59' W 076°20'2 4.5
2017-Nov-22 21:00N 36°57' W 076°20'4 8.3
2017-Nov-22 20:30N 36°53' W 076°20'3 6.4
2017-Nov-22 20:00N 36°50' W 076°18'3 5.1
2017-Nov-22 19:30N 36°47' W 076°18'  
2017-Nov-19 08:02N 39°32' W 074°11'0 6.0
2017-Nov-19 07:57N 39°32' W 074°11'4 6.1
2017-Nov-19 07:17N 39°36' W 074°09'2 6.3
2017-Nov-19 06:58N 39°38' W 074°08'3 6.1
2017-Nov-19 06:27N 39°40' W 074°06'3 6.1
2017-Nov-19 06:00N 39°43' W 074°04'3 5.9
2017-Nov-19 05:27N 39°46' W 074°03'37 7.8
2017-Nov-19 00:38N 40°23' W 073°55'4 7.9
2017-Nov-19 00:10N 40°26' W 073°54'7 6.8
2017-Nov-18 23:09N 40°31' W 074°00'1 6.7
2017-Nov-18 23:00N 40°32' W 074°01'4 7.6
2017-Nov-18 22:30N 40°36' W 074°03'4 8.0
2017-Nov-18 22:00N 40°40' W 074°04'1 2.0
2017-Nov-18 21:30N 40°40' W 074°04'0 0.0
2017-Nov-18 21:01N 40°40' W 074°04'0 0.0
2017-Nov-18 20:31N 40°40' W 074°04'0 0.5
2017-Nov-18 20:00N 40°41' W 074°05'0 0.5
2017-Nov-18 19:30N 40°41' W 074°04'0 0.2
2017-Nov-18 19:00N 40°40' W 074°04'0 0.1
2017-Nov-18 18:30N 40°40' W 074°04'0 0.3
2017-Nov-18 18:00N 40°41' W 074°04'0 0.7
2017-Nov-18 17:30N 40°40' W 074°04'2 4.9
2017-Nov-18 17:00N 40°39' W 074°07'0 0.0
2017-Nov-18 16:30N 40°39' W 074°07'0 0.0
2017-Nov-18 16:00N 40°39' W 074°07'0 0.0
2017-Nov-18 15:30N 40°39' W 074°07'0 0.0
2017-Nov-18 15:00N 40°39' W 074°07'0 0.0
2017-Nov-18 14:30N 40°39' W 074°07'0 0.0
2017-Nov-18 14:00N 40°39' W 074°07'0 0.0
2017-Nov-18 13:30N 40°39' W 074°07'0 0.0
2017-Nov-18 13:00N 40°39' W 074°07'0 0.0
2017-Nov-18 12:30N 40°39' W 074°07'0 0.0
2017-Nov-18 12:00N 40°39' W 074°07'0 0.0
2017-Nov-18 11:30N 40°39' W 074°07'0 0.0
2017-Nov-18 11:00N 40°39' W 074°07'3 5.1
2017-Nov-18 10:31N 40°40' W 074°04'0 0.8
2017-Nov-18 10:00N 40°40' W 074°04'0 0.0
2017-Nov-18 09:30N 40°40' W 074°04'0 0.0
2017-Nov-18 09:01N 40°40' W 074°04'0 0.0
2017-Nov-18 08:30N 40°40' W 074°04'0 0.0
2017-Nov-18 08:01N 40°40' W 074°04'0 0.0
2017-Nov-18 07:31N 40°40' W 074°04'0 0.0
2017-Nov-18 07:01N 40°40' W 074°04'0 0.0
2017-Nov-18 06:30N 40°40' W 074°04'4 7.6
2017-Nov-18 06:00N 40°37' W 074°03'510.1
2017-Nov-18 05:30N 40°32' W 074°01'11 1.0
2017-Nov-17 19:12N 40°22' W 073°57'311.5
2017-Nov-17 18:59N 40°24' W 073°57'6 9.9
2017-Nov-17 18:25N 40°29' W 074°00'1 3.5
2017-Nov-17 18:00N 40°28' W 074°01'0 0.0
2017-Nov-17 17:30N 40°28' W 074°01'0 0.0
2017-Nov-17 17:00N 40°28' W 074°01'0 0.0
2017-Nov-17 16:30N 40°28' W 074°01'0 0.0
2017-Nov-17 16:01N 40°28' W 074°01'0 0.0
2017-Nov-17 15:30N 40°28' W 074°01'0 0.0
2017-Nov-17 15:00N 40°28' W 074°01'0 0.0
2017-Nov-17 14:29N 40°28' W 074°01'0 0.0
2017-Nov-17 07:43N 40°27' W 074°01'0 0.0
2017-Nov-17 07:29N 40°27' W 074°01'0 0.1
2017-Nov-17 07:01N 40°28' W 074°01'0 0.1
2017-Nov-17 06:28N 40°28' W 074°01'0 0.0
2017-Nov-17 05:59N 40°28' W 074°01'0 0.3
2017-Nov-17 05:30N 40°28' W 074°01'1 0.2
2017-Nov-17 02:19N 40°28' W 074°01'2 6.6
2017-Nov-17 02:00N 40°29' W 073°59'1 0.1
2017-Nov-16 17:46N 40°29' W 074°00'2 6.4
2017-Nov-16 17:30N 40°28' W 074°01'12 2.8
2017-Nov-16 13:25N 40°33' W 074°14'3 6.9
2017-Nov-16 12:56N 40°36' W 074°12'3 6.5
2017-Nov-16 12:30N 40°39' W 074°10'4 7.4
2017-Nov-16 12:00N 40°39' W 074°05'2 3.5
2017-Nov-16 11:30N 40°41' W 074°04'0 0.1
2017-Nov-16 11:00N 40°40' W 074°04'0 0.2
2017-Nov-16 10:31N 40°41' W 074°04'0 0.0
2017-Nov-16 10:01N 40°41' W 074°04'1 1.5
2017-Nov-16 09:31N 40°40' W 074°04'4 8.2
2017-Nov-16 09:00N 40°39' W 074°09'4 6.9
2017-Nov-16 08:29N 40°36' W 074°12'6 2.8
2017-Nov-16 06:26N 40°30' W 074°10'3 6.7
2017-Nov-16 05:57N 40°29' W 074°06'3 6.6
2017-Nov-16 05:30N 40°28' W 074°02'1 1.2
2017-Nov-16 04:39N 40°28' W 074°01'2 3.0
2017-Nov-16 04:07N 40°29' W 074°03'1 5.8
2017-Nov-16 04:00N 40°30' W 074°03'3 6.2
2017-Nov-16 03:30N 40°33' W 074°02'4 7.4
2017-Nov-16 03:00N 40°36' W 074°03'4 8.1
2017-Nov-16 02:30N 40°40' W 074°04'0 1.0
2017-Nov-16 02:00N 40°41' W 074°05'0 0.1
2017-Nov-16 01:30N 40°41' W 074°05'0 0.1
2017-Nov-16 01:00N 40°41' W 074°05'0 0.4
2017-Nov-16 00:30N 40°41' W 074°04'2 3.5
2017-Nov-16 00:00N 40°39' W 074°05'4 8.0
2017-Nov-15 23:29N 40°39' W 074°11'4 8.1
2017-Nov-15 23:00N 40°35' W 074°12'3 4.0
2017-Nov-15 22:08N 40°32' W 074°15'0 0.0
2017-Nov-15 21:44N 40°32' W 074°15'0 0.0
2017-Nov-15 21:29N 40°32' W 074°15'0 0.1
2017-Nov-15 20:56N 40°32' W 074°15'4 6.5
2017-Nov-15 20:21N 40°35' W 074°12'3 8.6
2017-Nov-15 20:00N 40°38' W 074°11'4 7.3
2017-Nov-15 19:30N 40°39' W 074°07'0 0.0
2017-Nov-15 19:00N 40°39' W 074°07'0 0.0
2017-Nov-15 18:30N 40°39' W 074°07'0 0.0
2017-Nov-15 18:00N 40°39' W 074°07'0 0.0
2017-Nov-15 17:30N 40°39' W 074°07'0 0.0
2017-Nov-15 17:00N 40°39' W 074°07'0 0.0
2017-Nov-15 16:30N 40°39' W 074°07'0 0.0
2017-Nov-15 16:00N 40°39' W 074°07'0 0.0
2017-Nov-15 15:30N 40°39' W 074°07'0 0.0
2017-Nov-15 15:00N 40°39' W 074°07'0 0.0
2017-Nov-15 14:30N 40°39' W 074°07'2 4.8
2017-Nov-15 14:01N 40°40' W 074°04'0 0.5
2017-Nov-15 13:30N 40°41' W 074°04'0 0.0
2017-Nov-15 13:01N 40°41' W 074°04'0 0.0
2017-Nov-15 12:31N 40°41' W 074°04'0 0.3
2017-Nov-15 12:01N 40°41' W 074°05'0 0.0
2017-Nov-15 11:30N 40°41' W 074°05'0 0.0
2017-Nov-15 11:00N 40°41' W 074°05'0 0.0
2017-Nov-15 10:31N 40°41' W 074°05'0 0.0
2017-Nov-15 10:00N 40°41' W 074°05'0 0.0
2017-Nov-15 09:31N 40°41' W 074°05'0 0.0
2017-Nov-15 09:00N 40°41' W 074°05'0 0.0
2017-Nov-15 08:30N 40°41' W 074°05'0 0.0
2017-Nov-15 08:00N 40°41' W 074°05'0 0.0
2017-Nov-15 07:30N 40°41' W 074°05'0 0.0
2017-Nov-15 07:00N 40°41' W 074°05'0 0.0
2017-Nov-15 06:30N 40°41' W 074°05'0 0.0
2017-Nov-15 06:01N 40°41' W 074°05'0 0.0
2017-Nov-15 05:30N 40°41' W 074°05'0 0.0
2017-Nov-15 05:01N 40°41' W 074°05'0 0.0
2017-Nov-15 04:31N 40°41' W 074°05'0 0.0
2017-Nov-15 04:01N 40°41' W 074°05'  
Track history (hours):
 
Tides and Currents Weather Stations Pressure Air Temp Water Temp Dewpoint Dewpoint Depression Visibility Wind Speed Wind Dir Waves Ship Positions

Alexandra

Owner: Weeks Marine, Inc., Cranford, NJ. More information available from US FCC via Universal Licensing System and Coast Guard Vessel Documentation Center.

Last reported at 2017-Nov-25 04:00 UTC. Time now 2017-Nov-25 04:20 UTC.
Position N 39°13' W 074°28'.

Length 37 m; draft 5 m.

Type: Tug. MMSI: 367161950.

Date/timePositionNaut miles runAvg speedWind from/ knotsBaromVisibWave heightAir tempDewpointWater temp
2017-Nov-25 04:00N 39°13' W 074°28'711.1
2017-Nov-25 03:25N 39°18' W 074°22'611.1
2017-Nov-25 02:52N 39°22' W 074°17'410.8
2017-Nov-25 02:29N 39°25' W 074°13'510.9
2017-Nov-25 02:00N 39°31' W 074°12'611.1
2017-Nov-25 01:30N 39°36' W 074°09'611.1
2017-Nov-25 01:00N 39°41' W 074°05'611.1
2017-Nov-25 00:30N 39°46' W 074°02'611.2
2017-Nov-24 23:59N 39°51' W 074°02'2811.0
2017-Nov-24 21:24N 40°19' W 073°56'411.0
2017-Nov-24 21:00N 40°24' W 073°55'710.4
2017-Nov-24 20:18N 40°30' W 073°58'411.8
2017-Nov-24 20:00N 40°33' W 074°02'612.3
2017-Nov-24 19:31N 40°39' W 074°03'2 4.3
2017-Nov-24 19:00N 40°41' W 074°05'0 0.0
2017-Nov-24 18:31N 40°41' W 074°05'0 0.0
2017-Nov-24 18:01N 40°41' W 074°05'0 0.1
2017-Nov-24 17:30N 40°41' W 074°05'0 0.0
2017-Nov-24 17:00N 40°41' W 074°05'0 0.0
2017-Nov-24 16:30N 40°41' W 074°05'0 0.0
2017-Nov-24 16:01N 40°41' W 074°05'0 0.0
2017-Nov-24 15:30N 40°41' W 074°05'0 0.0
2017-Nov-24 15:00N 40°41' W 074°05'0 0.0
2017-Nov-24 14:30N 40°41' W 074°05'0 0.0
2017-Nov-24 14:00N 40°41' W 074°05'0 0.0
2017-Nov-24 13:31N 40°41' W 074°05'0 0.0
2017-Nov-24 13:00N 40°41' W 074°05'0 0.0
2017-Nov-24 12:30N 40°41' W 074°05'0 0.0
2017-Nov-24 12:00N 40°41' W 074°05'0 0.0
2017-Nov-24 11:30N 40°41' W 074°05'0 0.0
2017-Nov-24 11:00N 40°41' W 074°05'0 0.0
2017-Nov-24 10:31N 40°41' W 074°05'0 0.0
2017-Nov-24 10:00N 40°41' W 074°05'0 0.0
2017-Nov-24 09:30N 40°41' W 074°05'0 0.0
2017-Nov-24 09:00N 40°41' W 074°05'0 0.0
2017-Nov-24 08:31N 40°41' W 074°05'0 0.0
2017-Nov-24 08:00N 40°41' W 074°05'0 0.5
2017-Nov-24 07:30N 40°41' W 074°04'1 2.2
2017-Nov-24 07:00N 40°40' W 074°03'4 8.2
2017-Nov-24 06:30N 40°36' W 074°02'2 3.9
2017-Nov-24 06:00N 40°34' W 074°02'3 6.7
2017-Nov-24 05:30N 40°31' W 073°59'4 7.1
2017-Nov-24 05:01N 40°29' W 073°55'41 9.0
2017-Nov-24 00:27N 39°49' W 074°02'4 9.2
2017-Nov-23 23:59N 39°44' W 074°03'4 9.2
2017-Nov-23 23:30N 39°40' W 074°06'5 9.3
2017-Nov-23 22:58N 39°36' W 074°09'182 7.7
2017-Nov-22 23:22N 36°57' W 076°01'16 8.0
2017-Nov-22 21:24N 36°59' W 076°20'2 4.5
2017-Nov-22 21:00N 36°57' W 076°20'4 8.3
2017-Nov-22 20:30N 36°53' W 076°20'3 6.4
2017-Nov-22 20:00N 36°50' W 076°18'3 5.1
2017-Nov-22 19:30N 36°47' W 076°18'  
2017-Nov-19 08:02N 39°32' W 074°11'0 6.0
2017-Nov-19 07:57N 39°32' W 074°11'4 6.1
2017-Nov-19 07:17N 39°36' W 074°09'2 6.3
2017-Nov-19 06:58N 39°38' W 074°08'3 6.1
2017-Nov-19 06:27N 39°40' W 074°06'3 6.1
2017-Nov-19 06:00N 39°43' W 074°04'3 5.9
2017-Nov-19 05:27N 39°46' W 074°03'37 7.8
2017-Nov-19 00:38N 40°23' W 073°55'4 7.9
2017-Nov-19 00:10N 40°26' W 073°54'7 6.8
2017-Nov-18 23:09N 40°31' W 074°00'1 6.7
2017-Nov-18 23:00N 40°32' W 074°01'4 7.6
2017-Nov-18 22:30N 40°36' W 074°03'4 8.0
2017-Nov-18 22:00N 40°40' W 074°04'1 2.0
2017-Nov-18 21:30N 40°40' W 074°04'0 0.0
2017-Nov-18 21:01N 40°40' W 074°04'0 0.0
2017-Nov-18 20:31N 40°40' W 074°04'0 0.5
2017-Nov-18 20:00N 40°41' W 074°05'0 0.5
2017-Nov-18 19:30N 40°41' W 074°04'0 0.2
2017-Nov-18 19:00N 40°40' W 074°04'0 0.1
2017-Nov-18 18:30N 40°40' W 074°04'0 0.3
2017-Nov-18 18:00N 40°41' W 074°04'0 0.7
2017-Nov-18 17:30N 40°40' W 074°04'2 4.9
2017-Nov-18 17:00N 40°39' W 074°07'0 0.0
2017-Nov-18 16:30N 40°39' W 074°07'0 0.0
2017-Nov-18 16:00N 40°39' W 074°07'0 0.0
2017-Nov-18 15:30N 40°39' W 074°07'0 0.0
2017-Nov-18 15:00N 40°39' W 074°07'0 0.0
2017-Nov-18 14:30N 40°39' W 074°07'0 0.0
2017-Nov-18 14:00N 40°39' W 074°07'0 0.0
2017-Nov-18 13:30N 40°39' W 074°07'0 0.0
2017-Nov-18 13:00N 40°39' W 074°07'0 0.0
2017-Nov-18 12:30N 40°39' W 074°07'0 0.0
2017-Nov-18 12:00N 40°39' W 074°07'0 0.0
2017-Nov-18 11:30N 40°39' W 074°07'0 0.0
2017-Nov-18 11:00N 40°39' W 074°07'3 5.1
2017-Nov-18 10:31N 40°40' W 074°04'0 0.8
2017-Nov-18 10:00N 40°40' W 074°04'0 0.0
2017-Nov-18 09:30N 40°40' W 074°04'0 0.0
2017-Nov-18 09:01N 40°40' W 074°04'0 0.0
2017-Nov-18 08:30N 40°40' W 074°04'0 0.0
2017-Nov-18 08:01N 40°40' W 074°04'0 0.0
2017-Nov-18 07:31N 40°40' W 074°04'0 0.0
2017-Nov-18 07:01N 40°40' W 074°04'0 0.0
2017-Nov-18 06:30N 40°40' W 074°04'4 7.6
2017-Nov-18 06:00N 40°37' W 074°03'510.1
2017-Nov-18 05:30N 40°32' W 074°01'11 1.0
2017-Nov-17 19:12N 40°22' W 073°57'311.5
2017-Nov-17 18:59N 40°24' W 073°57'6 9.9
2017-Nov-17 18:25N 40°29' W 074°00'1 3.5
2017-Nov-17 18:00N 40°28' W 074°01'0 0.0
2017-Nov-17 17:30N 40°28' W 074°01'0 0.0
2017-Nov-17 17:00N 40°28' W 074°01'0 0.0
2017-Nov-17 16:30N 40°28' W 074°01'0 0.0
2017-Nov-17 16:01N 40°28' W 074°01'0 0.0
2017-Nov-17 15:30N 40°28' W 074°01'0 0.0
2017-Nov-17 15:00N 40°28' W 074°01'0 0.0
2017-Nov-17 14:29N 40°28' W 074°01'0 0.0
2017-Nov-17 07:43N 40°27' W 074°01'0 0.0
2017-Nov-17 07:29N 40°27' W 074°01'0 0.1
2017-Nov-17 07:01N 40°28' W 074°01'0 0.1
2017-Nov-17 06:28N 40°28' W 074°01'0 0.0
2017-Nov-17 05:59N 40°28' W 074°01'0 0.3
2017-Nov-17 05:30N 40°28' W 074°01'1 0.2
2017-Nov-17 02:19N 40°28' W 074°01'2 6.6
2017-Nov-17 02:00N 40°29' W 073°59'1 0.1
2017-Nov-16 17:46N 40°29' W 074°00'2 6.4
2017-Nov-16 17:30N 40°28' W 074°01'12 2.8
2017-Nov-16 13:25N 40°33' W 074°14'3 6.9
2017-Nov-16 12:56N 40°36' W 074°12'3 6.5
2017-Nov-16 12:30N 40°39' W 074°10'4 7.4
2017-Nov-16 12:00N 40°39' W 074°05'2 3.5
2017-Nov-16 11:30N 40°41' W 074°04'0 0.1
2017-Nov-16 11:00N 40°40' W 074°04'0 0.2
2017-Nov-16 10:31N 40°41' W 074°04'0 0.0
2017-Nov-16 10:01N 40°41' W 074°04'1 1.5
2017-Nov-16 09:31N 40°40' W 074°04'4 8.2
2017-Nov-16 09:00N 40°39' W 074°09'4 6.9
2017-Nov-16 08:29N 40°36' W 074°12'6 2.8
2017-Nov-16 06:26N 40°30' W 074°10'3 6.7
2017-Nov-16 05:57N 40°29' W 074°06'3 6.6
2017-Nov-16 05:30N 40°28' W 074°02'1 1.2
2017-Nov-16 04:39N 40°28' W 074°01'2 3.0
2017-Nov-16 04:07N 40°29' W 074°03'1 5.8
2017-Nov-16 04:00N 40°30' W 074°03'3 6.2
2017-Nov-16 03:30N 40°33' W 074°02'4 7.4
2017-Nov-16 03:00N 40°36' W 074°03'4 8.1
2017-Nov-16 02:30N 40°40' W 074°04'0 1.0
2017-Nov-16 02:00N 40°41' W 074°05'0 0.1
2017-Nov-16 01:30N 40°41' W 074°05'0 0.1
2017-Nov-16 01:00N 40°41' W 074°05'0 0.4
2017-Nov-16 00:30N 40°41' W 074°04'2 3.5
2017-Nov-16 00:00N 40°39' W 074°05'4 8.0
2017-Nov-15 23:29N 40°39' W 074°11'4 8.1
2017-Nov-15 23:00N 40°35' W 074°12'3 4.0
2017-Nov-15 22:08N 40°32' W 074°15'0 0.0
2017-Nov-15 21:44N 40°32' W 074°15'0 0.0
2017-Nov-15 21:29N 40°32' W 074°15'0 0.1
2017-Nov-15 20:56N 40°32' W 074°15'4 6.5
2017-Nov-15 20:21N 40°35' W 074°12'3 8.6
2017-Nov-15 20:00N 40°38' W 074°11'4 7.3
2017-Nov-15 19:30N 40°39' W 074°07'0 0.0
2017-Nov-15 19:00N 40°39' W 074°07'0 0.0
2017-Nov-15 18:30N 40°39' W 074°07'0 0.0
2017-Nov-15 18:00N 40°39' W 074°07'0 0.0
2017-Nov-15 17:30N 40°39' W 074°07'0 0.0
2017-Nov-15 17:00N 40°39' W 074°07'0 0.0
2017-Nov-15 16:30N 40°39' W 074°07'0 0.0
2017-Nov-15 16:00N 40°39' W 074°07'0 0.0
2017-Nov-15 15:30N 40°39' W 074°07'0 0.0
2017-Nov-15 15:00N 40°39' W 074°07'0 0.0
2017-Nov-15 14:30N 40°39' W 074°07'2 4.8
2017-Nov-15 14:01N 40°40' W 074°04'0 0.5
2017-Nov-15 13:30N 40°41' W 074°04'0 0.0
2017-Nov-15 13:01N 40°41' W 074°04'0 0.0
2017-Nov-15 12:31N 40°41' W 074°04'0 0.3
2017-Nov-15 12:01N 40°41' W 074°05'0 0.0
2017-Nov-15 11:30N 40°41' W 074°05'0 0.0
2017-Nov-15 11:00N 40°41' W 074°05'0 0.0
2017-Nov-15 10:31N 40°41' W 074°05'0 0.0
2017-Nov-15 10:00N 40°41' W 074°05'0 0.0
2017-Nov-15 09:31N 40°41' W 074°05'0 0.0
2017-Nov-15 09:00N 40°41' W 074°05'0 0.0
2017-Nov-15 08:30N 40°41' W 074°05'0 0.0
2017-Nov-15 08:00N 40°41' W 074°05'0 0.0
2017-Nov-15 07:30N 40°41' W 074°05'0 0.0
2017-Nov-15 07:00N 40°41' W 074°05'0 0.0
2017-Nov-15 06:30N 40°41' W 074°05'0 0.0
2017-Nov-15 06:01N 40°41' W 074°05'0 0.0
2017-Nov-15 05:30N 40°41' W 074°05'0 0.0
2017-Nov-15 05:01N 40°41' W 074°05'0 0.0
2017-Nov-15 04:31N 40°41' W 074°05'0 0.0
2017-Nov-15 04:01N 40°41' W 074°05'  

Dump ship's entire track history